sensor_id;sensor_type;location;lat;lon;timestamp;pressure;altitude;pressure_sealevel;temperature;humidity
4167;BME280;2097;51.104;7.150;2022-10-16T00:02:12;98402.38;;;12.65;100.00
4167;BME280;2097;51.104;7.150;2022-10-16T00:04:39;98335.72;;;12.16;100.00
4167;BME280;2097;51.104;7.150;2022-10-16T00:07:06;98438.03;;;12.76;100.00
4167;BME280;2097;51.104;7.150;2022-10-16T00:09:34;98434.84;;;12.72;100.00
4167;BME280;2097;51.104;7.150;2022-10-16T00:12:01;98447.94;;;12.71;100.00
4167;BME280;2097;51.104;7.150;2022-10-16T00:14:29;98425.00;;;12.52;100.00
4167;BME280;2097;51.104;7.150;2022-10-16T00:16:55;98449.94;;;12.67;100.00
4167;BME280;2097;51.104;7.150;2022-10-16T00:19:22;98448.28;;;12.66;100.00
4167;BME280;2097;51.104;7.150;2022-10-16T00:21:49;98454.53;;;12.64;100.00
4167;BME280;2097;51.104;7.150;2022-10-16T00:24:16;98459.13;;;12.60;100.00
4167;BME280;2097;51.104;7.150;2022-10-16T00:26:44;98459.22;;;12.59;100.00
4167;BME280;2097;51.104;7.150;2022-10-16T00:29:10;98471.09;;;12.63;100.00
4167;BME280;2097;51.104;7.150;2022-10-16T00:31:37;98469.13;;;12.66;100.00
4167;BME280;2097;51.104;7.150;2022-10-16T00:34:04;98472.66;;;12.65;100.00
4167;BME280;2097;51.104;7.150;2022-10-16T00:36:31;98347.03;;;11.92;100.00
4167;BME280;2097;51.104;7.150;2022-10-16T00:38:58;98399.50;;;12.22;100.00
4167;BME280;2097;51.104;7.150;2022-10-16T00:41:26;98350.22;;;11.95;100.00
4167;BME280;2097;51.104;7.150;2022-10-16T00:43:55;98459.47;;;12.56;100.00
4167;BME280;2097;51.104;7.150;2022-10-16T00:46:26;98400.84;;;12.15;100.00
4167;BME280;2097;51.104;7.150;2022-10-16T00:48:57;98458.22;;;12.49;100.00
4167;BME280;2097;51.104;7.150;2022-10-16T00:51:30;98460.09;;;12.47;100.00
4167;BME280;2097;51.104;7.150;2022-10-16T00:53:58;98365.09;;;11.93;100.00
4167;BME280;2097;51.104;7.150;2022-10-16T00:56:25;98450.94;;;12.42;100.00
4167;BME280;2097;51.104;7.150;2022-10-16T00:58:53;98458.28;;;12.37;100.00
4167;BME280;2097;51.104;7.150;2022-10-16T01:01:21;98446.41;;;12.33;100.00
4167;BME280;2097;51.104;7.150;2022-10-16T01:03:48;98443.06;;;12.31;100.00
4167;BME280;2097;51.104;7.150;2022-10-16T01:06:25;98450.38;;;12.26;100.00
4167;BME280;2097;51.104;7.150;2022-10-16T01:09:09;98367.44;;;11.73;100.00
4167;BME280;2097;51.104;7.150;2022-10-16T01:11:44;98452.25;;;12.24;100.00
4167;BME280;2097;51.104;7.150;2022-10-16T01:14:19;98468.88;;;12.21;100.00
4167;BME280;2097;51.104;7.150;2022-10-16T01:16:53;98480.22;;;12.20;100.00
4167;BME280;2097;51.104;7.150;2022-10-16T01:19:34;98469.13;;;12.18;100.00
4167;BME280;2097;51.104;7.150;2022-10-16T01:22:06;98457.88;;;12.18;100.00
4167;BME280;2097;51.104;7.150;2022-10-16T01:24:38;98451.94;;;12.16;100.00
4167;BME280;2097;51.104;7.150;2022-10-16T01:27:11;98404.03;;;11.82;100.00
4167;BME280;2097;51.104;7.150;2022-10-16T01:29:42;98463.50;;;12.12;100.00
4167;BME280;2097;51.104;7.150;2022-10-16T01:32:16;98470.47;;;12.11;100.00
4167;BME280;2097;51.104;7.150;2022-10-16T01:34:48;98470.34;;;12.13;100.00
4167;BME280;2097;51.104;7.150;2022-10-16T01:37:20;98469.53;;;12.12;100.00
4167;BME280;2097;51.104;7.150;2022-10-16T01:39:50;98407.78;;;11.78;100.00
4167;BME280;2097;51.104;7.150;2022-10-16T01:42:23;98462.47;;;12.14;100.00
4167;BME280;2097;51.104;7.150;2022-10-16T01:44:54;98458.09;;;12.15;100.00
4167;BME280;2097;51.104;7.150;2022-10-16T01:47:25;98462.34;;;12.16;100.00
4167;BME280;2097;51.104;7.150;2022-10-16T01:49:56;98426.50;;;11.83;100.00
4167;BME280;2097;51.104;7.150;2022-10-16T01:52:26;98476.41;;;12.13;100.00
4167;BME280;2097;51.104;7.150;2022-10-16T01:54:56;98408.81;;;11.76;100.00
4167;BME280;2097;51.104;7.150;2022-10-16T01:57:27;98472.75;;;12.16;100.00
4167;BME280;2097;51.104;7.150;2022-10-16T02:00:00;98419.66;;;11.82;100.00
4167;BME280;2097;51.104;7.150;2022-10-16T02:02:30;98476.09;;;12.18;100.00
4167;BME280;2097;51.104;7.150;2022-10-16T02:05:02;98477.75;;;12.19;100.00
4167;BME280;2097;51.104;7.150;2022-10-16T02:07:31;98477.53;;;12.22;100.00
4167;BME280;2097;51.104;7.150;2022-10-16T02:09:59;98481.59;;;12.26;100.00
4167;BME280;2097;51.104;7.150;2022-10-16T02:12:30;98482.84;;;12.33;100.00
4167;BME280;2097;51.104;7.150;2022-10-16T02:14:58;98482.63;;;12.36;100.00
4167;BME280;2097;51.104;7.150;2022-10-16T02:17:26;98475.53;;;12.38;100.00
4167;BME280;2097;51.104;7.150;2022-10-16T02:19:54;98465.00;;;12.39;100.00
4167;BME280;2097;51.104;7.150;2022-10-16T02:22:27;98464.06;;;12.40;100.00
4167;BME280;2097;51.104;7.150;2022-10-16T02:24:57;98473.34;;;12.44;100.00
4167;BME280;2097;51.104;7.150;2022-10-16T02:27:29;98488.00;;;12.45;100.00
4167;BME280;2097;51.104;7.150;2022-10-16T02:30:02;98484.56;;;12.45;100.00
4167;BME280;2097;51.104;7.150;2022-10-16T02:32:34;98441.75;;;12.13;100.00
4167;BME280;2097;51.104;7.150;2022-10-16T02:35:03;98473.00;;;12.48;100.00
4167;BME280;2097;51.104;7.150;2022-10-16T02:37:31;98484.13;;;12.50;100.00
4167;BME280;2097;51.104;7.150;2022-10-16T02:39:58;98489.25;;;12.52;100.00
4167;BME280;2097;51.104;7.150;2022-10-16T02:42:29;98458.69;;;12.31;100.00
4167;BME280;2097;51.104;7.150;2022-10-16T02:44:59;98494.00;;;12.58;100.00
4167;BME280;2097;51.104;7.150;2022-10-16T02:47:25;98492.13;;;12.60;100.00
4167;BME280;2097;51.104;7.150;2022-10-16T02:49:52;98486.81;;;12.61;100.00
4167;BME280;2097;51.104;7.150;2022-10-16T02:52:19;98441.00;;;12.36;100.00
4167;BME280;2097;51.104;7.150;2022-10-16T02:54:46;98485.88;;;12.62;100.00
4167;BME280;2097;51.104;7.150;2022-10-16T02:57:13;98438.91;;;12.28;100.00
4167;BME280;2097;51.104;7.150;2022-10-16T02:59:41;98485.97;;;12.61;100.00
4167;BME280;2097;51.104;7.150;2022-10-16T03:02:08;98429.56;;;12.26;100.00
4167;BME280;2097;51.104;7.150;2022-10-16T03:04:34;98490.47;;;12.59;100.00
4167;BME280;2097;51.104;7.150;2022-10-16T03:07:01;98494.84;;;12.58;100.00
4167;BME280;2097;51.104;7.150;2022-10-16T03:09:28;98443.50;;;12.25;100.00
4167;BME280;2097;51.104;7.150;2022-10-16T03:11:55;98489.72;;;12.57;100.00
4167;BME280;2097;51.104;7.150;2022-10-16T03:14:21;98499.44;;;12.55;100.00
4167;BME280;2097;51.104;7.150;2022-10-16T03:16:49;98494.25;;;12.55;100.00
4167;BME280;2097;51.104;7.150;2022-10-16T03:19:16;98489.03;;;12.55;100.00
4167;BME280;2097;51.104;7.150;2022-10-16T03:21:43;98478.94;;;12.50;100.00
4167;BME280;2097;51.104;7.150;2022-10-16T03:24:10;98474.88;;;12.47;100.00
4167;BME280;2097;51.104;7.150;2022-10-16T03:26:37;98456.28;;;12.40;100.00
4167;BME280;2097;51.104;7.150;2022-10-16T03:29:04;98453.88;;;12.37;100.00
4167;BME280;2097;51.104;7.150;2022-10-16T03:31:32;98424.16;;;12.04;100.00
4167;BME280;2097;51.104;7.150;2022-10-16T03:34:00;98475.66;;;12.24;100.00
4167;BME280;2097;51.104;7.150;2022-10-16T03:36:26;98477.41;;;12.23;100.00
4167;BME280;2097;51.104;7.150;2022-10-16T03:38:53;98476.59;;;12.23;100.00
4167;BME280;2097;51.104;7.150;2022-10-16T03:41:20;98484.72;;;12.18;100.00
4167;BME280;2097;51.104;7.150;2022-10-16T03:43:47;98483.78;;;12.19;100.00
4167;BME280;2097;51.104;7.150;2022-10-16T03:46:13;98384.81;;;11.60;100.00
4167;BME280;2097;51.104;7.150;2022-10-16T03:48:40;98444.91;;;11.93;100.00
4167;BME280;2097;51.104;7.150;2022-10-16T03:51:08;98490.03;;;12.17;100.00
4167;BME280;2097;51.104;7.150;2022-10-16T03:53:35;98484.81;;;12.17;100.00
4167;BME280;2097;51.104;7.150;2022-10-16T03:56:02;98490.75;;;12.19;100.00
4167;BME280;2097;51.104;7.150;2022-10-16T03:58:29;98450.84;;;11.95;100.00
4167;BME280;2097;51.104;7.150;2022-10-16T04:00:55;98438.34;;;11.75;100.00
4167;BME280;2097;51.104;7.150;2022-10-16T04:03:22;98509.38;;;12.13;100.00
4167;BME280;2097;51.104;7.150;2022-10-16T04:05:49;98512.81;;;12.13;100.00
4167;BME280;2097;51.104;7.150;2022-10-16T04:08:18;98515.94;;;12.18;100.00
4167;BME280;2097;51.104;7.150;2022-10-16T04:10:45;98458.31;;;11.87;100.00
4167;BME280;2097;51.104;7.150;2022-10-16T04:13:12;98519.47;;;12.30;100.00
4167;BME280;2097;51.104;7.150;2022-10-16T04:15:39;98506.47;;;12.30;100.00
4167;BME280;2097;51.104;7.150;2022-10-16T04:18:06;98485.97;;;12.13;100.00
4167;BME280;2097;51.104;7.150;2022-10-16T04:20:33;98521.53;;;12.37;100.00
4167;BME280;2097;51.104;7.150;2022-10-16T04:23:00;98513.53;;;12.40;100.00
4167;BME280;2097;51.104;7.150;2022-10-16T04:25:28;98508.94;;;12.44;100.00
4167;BME280;2097;51.104;7.150;2022-10-16T04:27:55;98527.78;;;12.47;100.00
4167;BME280;2097;51.104;7.150;2022-10-16T04:30:23;98426.50;;;11.83;100.00
4167;BME280;2097;51.104;7.150;2022-10-16T04:32:50;98535.47;;;12.48;100.00
4167;BME280;2097;51.104;7.150;2022-10-16T04:35:18;98530.38;;;12.47;100.00
4167;BME280;2097;51.104;7.150;2022-10-16T04:37:45;98533.06;;;12.46;100.00
4167;BME280;2097;51.104;7.150;2022-10-16T04:40:12;98541.22;;;12.41;100.00
4167;BME280;2097;51.104;7.150;2022-10-16T04:42:41;98538.09;;;12.36;100.00
4167;BME280;2097;51.104;7.150;2022-10-16T04:45:08;98324.59;;;11.04;100.00
4167;BME280;2097;51.104;7.150;2022-10-16T04:50:10;98526.44;;;12.29;100.00
4167;BME280;2097;51.104;7.150;2022-10-16T04:52:37;98538.09;;;12.24;100.00
4167;BME280;2097;51.104;7.150;2022-10-16T04:55:05;98548.00;;;12.19;100.00
4167;BME280;2097;51.104;7.150;2022-10-16T04:57:31;98538.84;;;12.13;100.00
4167;BME280;2097;51.104;7.150;2022-10-16T05:00:00;98463.31;;;11.65;100.00
4167;BME280;2097;51.104;7.150;2022-10-16T05:02:28;98550.28;;;12.11;100.00
4167;BME280;2097;51.104;7.150;2022-10-16T05:04:55;98559.22;;;12.07;100.00
4167;BME280;2097;51.104;7.150;2022-10-16T05:07:21;98332.84;;;10.71;100.00
4167;BME280;2097;51.104;7.150;2022-10-16T05:09:48;98534.47;;;12.01;100.00
4167;BME280;2097;51.104;7.150;2022-10-16T05:12:15;98547.13;;;12.06;100.00
4167;BME280;2097;51.104;7.150;2022-10-16T05:14:41;98549.00;;;12.04;100.00
4167;BME280;2097;51.104;7.150;2022-10-16T05:17:09;98559.66;;;12.01;100.00
4167;BME280;2097;51.104;7.150;2022-10-16T05:19:36;98571.91;;;11.99;100.00
4167;BME280;2097;51.104;7.150;2022-10-16T05:22:03;98564.22;;;11.97;100.00
4167;BME280;2097;51.104;7.150;2022-10-16T05:24:30;98569.53;;;11.96;100.00
4167;BME280;2097;51.104;7.150;2022-10-16T05:26:56;98572.31;;;11.93;100.00
4167;BME280;2097;51.104;7.150;2022-10-16T05:29:23;98574.00;;;11.94;100.00
4167;BME280;2097;51.104;7.150;2022-10-16T05:31:51;98576.69;;;11.92;100.00
4167;BME280;2097;51.104;7.150;2022-10-16T05:34:20;98581.78;;;11.94;100.00
4167;BME280;2097;51.104;7.150;2022-10-16T05:36:46;98576.28;;;11.98;100.00
4167;BME280;2097;51.104;7.150;2022-10-16T05:39:14;98458.22;;;11.25;100.00
4167;BME280;2097;51.104;7.150;2022-10-16T05:41:41;98595.44;;;12.10;100.00
4167;BME280;2097;51.104;7.150;2022-10-16T05:44:07;98599.28;;;12.17;100.00
4167;BME280;2097;51.104;7.150;2022-10-16T05:46:34;98594.63;;;12.22;100.00
4167;BME280;2097;51.104;7.150;2022-10-16T05:49:01;98594.19;;;12.28;100.00
4167;BME280;2097;51.104;7.150;2022-10-16T05:51:29;98594.72;;;12.33;100.00
4167;BME280;2097;51.104;7.150;2022-10-16T05:53:56;98605.66;;;12.38;100.00
4167;BME280;2097;51.104;7.150;2022-10-16T05:56:22;98608.97;;;12.40;100.00
4167;BME280;2097;51.104;7.150;2022-10-16T05:58:49;98610.03;;;12.37;100.00
4167;BME280;2097;51.104;7.150;2022-10-16T06:01:17;98457.84;;;11.43;100.00
4167;BME280;2097;51.104;7.150;2022-10-16T06:03:46;98524.47;;;11.83;100.00
4167;BME280;2097;51.104;7.150;2022-10-16T06:06:15;98625.09;;;12.32;100.00
4167;BME280;2097;51.104;7.150;2022-10-16T06:08:44;98615.94;;;12.27;100.00
4167;BME280;2097;51.104;7.150;2022-10-16T06:11:12;98632.63;;;12.37;100.00
4167;BME280;2097;51.104;7.150;2022-10-16T06:13:40;98630.72;;;12.39;100.00
4167;BME280;2097;51.104;7.150;2022-10-16T06:16:08;98623.75;;;12.39;100.00
4167;BME280;2097;51.104;7.150;2022-10-16T06:18:36;98632.31;;;12.41;100.00
4167;BME280;2097;51.104;7.150;2022-10-16T06:21:08;98644.47;;;12.41;100.00
4167;BME280;2097;51.104;7.150;2022-10-16T06:23:35;98647.91;;;12.41;100.00
4167;BME280;2097;51.104;7.150;2022-10-16T06:26:07;98646.97;;;12.42;100.00
4167;BME280;2097;51.104;7.150;2022-10-16T06:28:33;98601.28;;;12.13;100.00
4167;BME280;2097;51.104;7.150;2022-10-16T06:31:01;98642.38;;;12.46;100.00
4167;BME280;2097;51.104;7.150;2022-10-16T06:33:27;98651.56;;;12.51;100.00
4167;BME280;2097;51.104;7.150;2022-10-16T06:36:00;98649.59;;;12.54;100.00
4167;BME280;2097;51.104;7.150;2022-10-16T06:38:27;98647.59;;;12.58;100.00
4167;BME280;2097;51.104;7.150;2022-10-16T06:40:54;98647.31;;;12.62;100.00
4167;BME280;2097;51.104;7.150;2022-10-16T06:43:22;98657.31;;;12.68;100.00
4167;BME280;2097;51.104;7.150;2022-10-16T06:45:52;98651.69;;;12.74;100.00
4167;BME280;2097;51.104;7.150;2022-10-16T06:48:19;98664.25;;;12.80;100.00
4167;BME280;2097;51.104;7.150;2022-10-16T06:50:55;98675.84;;;12.89;100.00
4167;BME280;2097;51.104;7.150;2022-10-16T06:53:22;98681.88;;;13.02;100.00
4167;BME280;2097;51.104;7.150;2022-10-16T06:55:49;98690.63;;;13.13;100.00
4167;BME280;2097;51.104;7.150;2022-10-16T06:58:15;98692.59;;;13.22;100.00
4167;BME280;2097;51.104;7.150;2022-10-16T07:00:44;98700.84;;;13.29;100.00
4167;BME280;2097;51.104;7.150;2022-10-16T07:03:10;98694.34;;;13.34;100.00
4167;BME280;2097;51.104;7.150;2022-10-16T07:05:37;98696.31;;;13.43;100.00
4167;BME280;2097;51.104;7.150;2022-10-16T07:08:04;98709.75;;;13.50;100.00
4167;BME280;2097;51.104;7.150;2022-10-16T07:10:31;98707.66;;;13.55;100.00
4167;BME280;2097;51.104;7.150;2022-10-16T07:12:58;98719.31;;;13.62;100.00
4167;BME280;2097;51.104;7.150;2022-10-16T07:15:25;98718.03;;;13.67;100.00
4167;BME280;2097;51.104;7.150;2022-10-16T07:17:53;98724.25;;;13.77;100.00
4167;BME280;2097;51.104;7.150;2022-10-16T07:20:20;98722.84;;;13.84;100.00
4167;BME280;2097;51.104;7.150;2022-10-16T07:22:47;98742.13;;;13.94;100.00
4167;BME280;2097;51.104;7.150;2022-10-16T07:25:14;98721.25;;;13.94;100.00
4167;BME280;2097;51.104;7.150;2022-10-16T07:27:40;98756.19;;;14.04;100.00
4167;BME280;2097;51.104;7.150;2022-10-16T07:30:08;98764.63;;;14.07;100.00
4167;BME280;2097;51.104;7.150;2022-10-16T07:32:35;98747.94;;;14.10;100.00
4167;BME280;2097;51.104;7.150;2022-10-16T07:35:04;98757.31;;;14.12;100.00
4167;BME280;2097;51.104;7.150;2022-10-16T07:37:30;98759.63;;;14.17;100.00
4167;BME280;2097;51.104;7.150;2022-10-16T07:39:57;98761.88;;;14.21;100.00
4167;BME280;2097;51.104;7.150;2022-10-16T07:42:24;98705.44;;;13.84;100.00
4167;BME280;2097;51.104;7.150;2022-10-16T07:44:51;98758.16;;;14.13;100.00
4167;BME280;2097;51.104;7.150;2022-10-16T07:47:19;98777.44;;;14.10;100.00
4167;BME280;2097;51.104;7.150;2022-10-16T07:49:46;98779.91;;;14.01;100.00
4167;BME280;2097;51.104;7.150;2022-10-16T07:52:14;98786.28;;;13.97;100.00
4167;BME280;2097;51.104;7.150;2022-10-16T07:54:41;98784.00;;;13.92;100.00
4167;BME280;2097;51.104;7.150;2022-10-16T07:57:07;98787.25;;;13.83;100.00
4167;BME280;2097;51.104;7.150;2022-10-16T07:59:34;98789.78;;;13.72;100.00
4167;BME280;2097;51.104;7.150;2022-10-16T08:02:01;98793.88;;;13.64;100.00
4167;BME280;2097;51.104;7.150;2022-10-16T08:04:28;98796.91;;;13.58;100.00
4167;BME280;2097;51.104;7.150;2022-10-16T08:06:54;98801.19;;;13.59;100.00
4167;BME280;2097;51.104;7.150;2022-10-16T08:09:22;98805.47;;;13.60;100.00
4167;BME280;2097;51.104;7.150;2022-10-16T08:11:49;98808.78;;;13.62;100.00
4167;BME280;2097;51.104;7.150;2022-10-16T08:14:17;98811.41;;;13.62;100.00
4167;BME280;2097;51.104;7.150;2022-10-16T08:16:44;98813.59;;;13.68;100.00
4167;BME280;2097;51.104;7.150;2022-10-16T08:19:11;98819.00;;;13.77;100.00
4167;BME280;2097;51.104;7.150;2022-10-16T08:21:38;98821.78;;;13.87;100.00
4167;BME280;2097;51.104;7.150;2022-10-16T08:24:07;98817.72;;;13.95;100.00
4167;BME280;2097;51.104;7.150;2022-10-16T08:26:35;98831.16;;;14.02;100.00
4167;BME280;2097;51.104;7.150;2022-10-16T08:29:02;98822.88;;;14.08;100.00
4167;BME280;2097;51.104;7.150;2022-10-16T08:31:29;98836.44;;;14.13;100.00
4167;BME280;2097;51.104;7.150;2022-10-16T08:33:55;98840.41;;;14.18;100.00
4167;BME280;2097;51.104;7.150;2022-10-16T08:36:22;98840.81;;;14.25;100.00
4167;BME280;2097;51.104;7.150;2022-10-16T08:38:50;98837.25;;;14.26;100.00
4167;BME280;2097;51.104;7.150;2022-10-16T08:41:50;98843.50;;;14.36;100.00
4167;BME280;2097;51.104;7.150;2022-10-16T08:47:17;98853.28;;;14.45;100.00
4167;BME280;2097;51.104;7.150;2022-10-16T08:49:56;98868.72;;;14.48;100.00
4167;BME280;2097;51.104;7.150;2022-10-16T08:52:27;98865.91;;;14.51;100.00
4167;BME280;2097;51.104;7.150;2022-10-16T08:54:56;98868.88;;;14.57;100.00
4167;BME280;2097;51.104;7.150;2022-10-16T08:57:25;98792.94;;;14.13;100.00
4167;BME280;2097;51.104;7.150;2022-10-16T08:59:53;98878.91;;;14.63;100.00
4167;BME280;2097;51.104;7.150;2022-10-16T09:02:29;98880.22;;;14.69;100.00
4167;BME280;2097;51.104;7.150;2022-10-16T09:05:15;98875.13;;;14.67;100.00
4167;BME280;2097;51.104;7.150;2022-10-16T09:07:49;98879.91;;;14.73;100.00
4167;BME280;2097;51.104;7.150;2022-10-16T09:10:29;98871.34;;;14.71;100.00
4167;BME280;2097;51.104;7.150;2022-10-16T09:13:10;98885.06;;;14.85;100.00
4167;BME280;2097;51.104;7.150;2022-10-16T09:15:44;98889.84;;;14.91;100.00
4167;BME280;2097;51.104;7.150;2022-10-16T09:18:20;98884.88;;;14.99;100.00
4167;BME280;2097;51.104;7.150;2022-10-16T09:20:51;98883.47;;;15.06;100.00
4167;BME280;2097;51.104;7.150;2022-10-16T09:23:24;98886.22;;;15.05;100.00
4167;BME280;2097;51.104;7.150;2022-10-16T09:25:52;98892.06;;;15.19;100.00
4167;BME280;2097;51.104;7.150;2022-10-16T09:28:21;98884.72;;;15.24;100.00
4167;BME280;2097;51.104;7.150;2022-10-16T09:30:48;98892.97;;;15.31;100.00
4167;BME280;2097;51.104;7.150;2022-10-16T09:33:17;98884.19;;;15.32;100.00
4167;BME280;2097;51.104;7.150;2022-10-16T09:35:45;98882.16;;;15.35;100.00
4167;BME280;2097;51.104;7.150;2022-10-16T09:38:25;98893.94;;;15.41;100.00
4167;BME280;2097;51.104;7.150;2022-10-16T09:40:52;98890.16;;;15.45;100.00
4167;BME280;2097;51.104;7.150;2022-10-16T09:43:23;98882.63;;;15.40;100.00
4167;BME280;2097;51.104;7.150;2022-10-16T09:45:57;98896.69;;;15.50;100.00
4167;BME280;2097;51.104;7.150;2022-10-16T09:48:26;98905.03;;;15.55;100.00
4167;BME280;2097;51.104;7.150;2022-10-16T09:50:58;98891.97;;;15.55;100.00
4167;BME280;2097;51.104;7.150;2022-10-16T09:53:27;98891.97;;;15.55;100.00
4167;BME280;2097;51.104;7.150;2022-10-16T09:56:04;98892.53;;;15.59;100.00
4167;BME280;2097;51.104;7.150;2022-10-16T09:58:33;98896.22;;;15.67;100.00
4167;BME280;2097;51.104;7.150;2022-10-16T10:01:00;98891.38;;;15.74;100.00
4167;BME280;2097;51.104;7.150;2022-10-16T10:03:37;98894.59;;;15.77;100.00
4167;BME280;2097;51.104;7.150;2022-10-16T10:06:14;98898.41;;;15.84;100.00
4167;BME280;2097;51.104;7.150;2022-10-16T10:08:56;98886.00;;;15.75;100.00
4167;BME280;2097;51.104;7.150;2022-10-16T10:11:44;98907.44;;;15.91;100.00
4167;BME280;2097;51.104;7.150;2022-10-16T10:14:18;98864.84;;;15.67;100.00
4167;BME280;2097;51.104;7.150;2022-10-16T10:16:46;98895.06;;;16.04;100.00
4167;BME280;2097;51.104;7.150;2022-10-16T10:19:15;98884.59;;;16.04;100.00
4167;BME280;2097;51.104;7.150;2022-10-16T10:21:42;98897.19;;;16.21;100.00
4167;BME280;2097;51.104;7.150;2022-10-16T10:24:13;98896.03;;;16.36;100.00
4167;BME280;2097;51.104;7.150;2022-10-16T10:26:47;98902.88;;;16.59;100.00
4167;BME280;2097;51.104;7.150;2022-10-16T10:29:23;98901.56;;;16.64;100.00
4167;BME280;2097;51.104;7.150;2022-10-16T10:32:01;98905.63;;;16.57;100.00
4167;BME280;2097;51.104;7.150;2022-10-16T10:34:41;98893.59;;;16.66;100.00
4167;BME280;2097;51.104;7.150;2022-10-16T10:37:23;98888.00;;;16.91;100.00
4167;BME280;2097;51.104;7.150;2022-10-16T10:40:00;98896.88;;;17.10;100.00
4167;BME280;2097;51.104;7.150;2022-10-16T10:42:36;98839.91;;;16.81;100.00
4167;BME280;2097;51.104;7.150;2022-10-16T10:45:20;98907.31;;;17.21;99.86
4167;BME280;2097;51.104;7.150;2022-10-16T10:47:59;98903.78;;;17.11;99.67
4167;BME280;2097;51.104;7.150;2022-10-16T10:50:35;98915.66;;;16.95;99.99
4167;BME280;2097;51.104;7.150;2022-10-16T10:53:13;98919.16;;;16.84;100.00
4167;BME280;2097;51.104;7.150;2022-10-16T10:55:48;98918.94;;;16.76;100.00
4167;BME280;2097;51.104;7.150;2022-10-16T10:58:57;98915.69;;;16.84;100.00
4167;BME280;2097;51.104;7.150;2022-10-16T11:01:39;98924.97;;;16.88;100.00
4167;BME280;2097;51.104;7.150;2022-10-16T11:04:20;98917.06;;;16.99;100.00
4167;BME280;2097;51.104;7.150;2022-10-16T11:06:55;98915.91;;;17.23;98.98
4167;BME280;2097;51.104;7.150;2022-10-16T11:09:26;98921.72;;;17.26;98.44
4167;BME280;2097;51.104;7.150;2022-10-16T11:11:58;98914.34;;;17.20;98.36
4167;BME280;2097;51.104;7.150;2022-10-16T11:14:30;98912.41;;;17.22;97.83
4167;BME280;2097;51.104;7.150;2022-10-16T11:17:05;98920.28;;;17.22;97.52
4167;BME280;2097;51.104;7.150;2022-10-16T11:19:38;98726.81;;;16.02;97.14
4167;BME280;2097;51.104;7.150;2022-10-16T11:22:12;98899.34;;;17.12;96.86
4167;BME280;2097;51.104;7.150;2022-10-16T11:24:45;98925.97;;;17.38;96.49
4167;BME280;2097;51.104;7.150;2022-10-16T11:27:17;98923.41;;;17.48;96.29
4167;BME280;2097;51.104;7.150;2022-10-16T11:29:49;98924.69;;;17.53;95.46
4167;BME280;2097;51.104;7.150;2022-10-16T11:32:23;98651.19;;;15.88;95.21
4167;BME280;2097;51.104;7.150;2022-10-16T11:34:55;98932.41;;;17.45;95.29
4167;BME280;2097;51.104;7.150;2022-10-16T11:37:25;98928.97;;;17.34;95.01
4167;BME280;2097;51.104;7.150;2022-10-16T11:39:58;98924.84;;;17.20;95.13
4167;BME280;2097;51.104;7.150;2022-10-16T11:42:32;98925.47;;;17.13;95.69
4167;BME280;2097;51.104;7.150;2022-10-16T11:45:02;98924.59;;;17.23;95.59
4167;BME280;2097;51.104;7.150;2022-10-16T11:47:39;98929.06;;;17.43;94.50
4167;BME280;2097;51.104;7.150;2022-10-16T11:50:17;98941.47;;;17.62;93.80
4167;BME280;2097;51.104;7.150;2022-10-16T11:52:54;98937.56;;;17.77;92.99
4167;BME280;2097;51.104;7.150;2022-10-16T11:55:25;98936.22;;;17.82;91.93
4167;BME280;2097;51.104;7.150;2022-10-16T11:57:58;98946.66;;;17.73;91.78
4167;BME280;2097;51.104;7.150;2022-10-16T12:00:31;98941.09;;;17.66;92.22
4167;BME280;2097;51.104;7.150;2022-10-16T12:03:11;98938.00;;;17.82;92.13
4167;BME280;2097;51.104;7.150;2022-10-16T12:05:52;98941.72;;;18.00;91.29
4167;BME280;2097;51.104;7.150;2022-10-16T12:08:22;98934.56;;;18.11;90.91
4167;BME280;2097;51.104;7.150;2022-10-16T12:10:49;98933.69;;;18.31;90.08
4167;BME280;2097;51.104;7.150;2022-10-16T12:13:30;98952.00;;;18.42;89.30
4167;BME280;2097;51.104;7.150;2022-10-16T12:16:20;98947.31;;;18.45;89.15
4167;BME280;2097;51.104;7.150;2022-10-16T12:18:49;98935.28;;;18.52;88.41
4167;BME280;2097;51.104;7.150;2022-10-16T12:21:30;98943.69;;;18.37;88.59
4167;BME280;2097;51.104;7.150;2022-10-16T12:23:58;98959.97;;;18.31;88.84
4167;BME280;2097;51.104;7.150;2022-10-16T12:26:27;98956.13;;;18.35;89.48
4167;BME280;2097;51.104;7.150;2022-10-16T12:28:56;98947.88;;;18.49;89.12
4167;BME280;2097;51.104;7.150;2022-10-16T12:31:37;98950.00;;;18.64;88.23
4167;BME280;2097;51.104;7.150;2022-10-16T12:34:21;98958.31;;;18.69;86.71
4167;BME280;2097;51.104;7.150;2022-10-16T12:36:49;98951.78;;;18.64;86.71
4167;BME280;2097;51.104;7.150;2022-10-16T12:39:21;98958.97;;;18.62;86.19
4167;BME280;2097;51.104;7.150;2022-10-16T12:42:00;98953.44;;;18.65;86.38
4167;BME280;2097;51.104;7.150;2022-10-16T12:44:31;98946.44;;;18.75;86.06
4167;BME280;2097;51.104;7.150;2022-10-16T12:46:59;98946.16;;;18.78;85.70
4167;BME280;2097;51.104;7.150;2022-10-16T12:49:34;98944.91;;;18.72;85.19
4167;BME280;2097;51.104;7.150;2022-10-16T12:52:02;98934.78;;;18.68;85.61
4167;BME280;2097;51.104;7.150;2022-10-16T12:54:30;98932.41;;;18.65;85.24
4167;BME280;2097;51.104;7.150;2022-10-16T12:57:12;98941.97;;;18.66;85.05
4167;BME280;2097;51.104;7.150;2022-10-16T12:59:46;98943.53;;;18.78;84.61
4167;BME280;2097;51.104;7.150;2022-10-16T13:02:39;98942.19;;;18.93;83.71
4167;BME280;2097;51.104;7.150;2022-10-16T13:05:30;98923.91;;;19.10;81.95
4167;BME280;2097;51.104;7.150;2022-10-16T13:08:11;98942.22;;;19.21;81.95
4167;BME280;2097;51.104;7.150;2022-10-16T13:10:51;98947.34;;;19.23;81.22
4167;BME280;2097;51.104;7.150;2022-10-16T13:13:41;98949.44;;;19.38;81.02
4167;BME280;2097;51.104;7.150;2022-10-16T13:16:18;98944.44;;;19.45;80.86
4167;BME280;2097;51.104;7.150;2022-10-16T13:18:55;98953.84;;;19.38;80.64
4167;BME280;2097;51.104;7.150;2022-10-16T13:21:34;98954.81;;;19.27;80.68
4167;BME280;2097;51.104;7.150;2022-10-16T13:24:12;98955.09;;;19.24;81.08
4167;BME280;2097;51.104;7.150;2022-10-16T13:26:49;98951.91;;;19.30;81.12
4167;BME280;2097;51.104;7.150;2022-10-16T13:29:19;98947.78;;;19.28;80.55
4167;BME280;2097;51.104;7.150;2022-10-16T13:31:46;98955.66;;;19.18;80.67
4167;BME280;2097;51.104;7.150;2022-10-16T13:34:16;98958.94;;;19.11;80.21
4167;BME280;2097;51.104;7.150;2022-10-16T13:36:47;98955.72;;;18.98;80.13